sensor_id;sensor_type;location;lat;lon;timestamp;P1;durP1;ratioP1;P2;durP2;ratioP2
3549;SDS011;45572;48.804;8.330;2023-03-26T00:00:50;5.75;;;2.55;;
3549;SDS011;45572;48.804;8.330;2023-03-26T00:03:19;6.30;;;2.15;;
3549;SDS011;45572;48.804;8.330;2023-03-26T00:05:49;5.93;;;2.10;;
3549;SDS011;45572;48.804;8.330;2023-03-26T00:08:29;4.90;;;2.03;;
3549;SDS011;45572;48.804;8.330;2023-03-26T00:10:57;4.90;;;1.80;;
3549;SDS011;45572;48.804;8.330;2023-03-26T00:13:26;5.35;;;1.90;;
3549;SDS011;45572;48.804;8.330;2023-03-26T00:15:55;13.57;;;2.25;;
3549;SDS011;45572;48.804;8.330;2023-03-26T00:18:22;6.20;;;2.35;;
3549;SDS011;45572;48.804;8.330;2023-03-26T00:20:56;7.90;;;2.03;;
3549;SDS011;45572;48.804;8.330;2023-03-26T00:23:25;8.70;;;2.05;;
3549;SDS011;45572;48.804;8.330;2023-03-26T00:25:54;8.52;;;2.30;;
3549;SDS011;45572;48.804;8.330;2023-03-26T00:28:23;2.70;;;1.40;;
3549;SDS011;45572;48.804;8.330;2023-03-26T00:30:55;7.15;;;2.85;;
3549;SDS011;45572;48.804;8.330;2023-03-26T00:33:24;5.90;;;2.00;;
3549;SDS011;45572;48.804;8.330;2023-03-26T00:35:52;7.53;;;2.70;;
3549;SDS011;45572;48.804;8.330;2023-03-26T00:38:23;4.75;;;1.50;;
3549;SDS011;45572;48.804;8.330;2023-03-26T00:40:51;11.68;;;1.92;;
3549;SDS011;45572;48.804;8.330;2023-03-26T00:43:21;5.80;;;1.73;;
3549;SDS011;45572;48.804;8.330;2023-03-26T00:45:52;7.68;;;2.60;;
3549;SDS011;45572;48.804;8.330;2023-03-26T00:48:21;13.35;;;1.77;;
3549;SDS011;45572;48.804;8.330;2023-03-26T00:51:07;12.95;;;2.30;;
3549;SDS011;45572;48.804;8.330;2023-03-26T00:53:37;9.40;;;2.13;;
3549;SDS011;45572;48.804;8.330;2023-03-26T00:56:06;10.07;;;2.55;;
3549;SDS011;45572;48.804;8.330;2023-03-26T00:58:35;8.98;;;2.10;;
3549;SDS011;45572;48.804;8.330;2023-03-26T01:01:03;9.95;;;2.78;;
3549;SDS011;45572;48.804;8.330;2023-03-26T01:03:35;7.57;;;1.90;;
3549;SDS011;45572;48.804;8.330;2023-03-26T01:06:05;15.70;;;2.72;;
3549;SDS011;45572;48.804;8.330;2023-03-26T01:08:38;7.28;;;1.67;;
3549;SDS011;45572;48.804;8.330;2023-03-26T01:11:11;10.13;;;2.03;;
3549;SDS011;45572;48.804;8.330;2023-03-26T01:13:42;12.32;;;2.25;;
3549;SDS011;45572;48.804;8.330;2023-03-26T01:16:16;4.75;;;1.63;;
3549;SDS011;45572;48.804;8.330;2023-03-26T01:18:50;7.18;;;1.95;;
3549;SDS011;45572;48.804;8.330;2023-03-26T01:21:19;7.30;;;2.03;;
3549;SDS011;45572;48.804;8.330;2023-03-26T01:23:56;5.22;;;1.67;;
3549;SDS011;45572;48.804;8.330;2023-03-26T01:26:29;4.82;;;2.42;;
3549;SDS011;45572;48.804;8.330;2023-03-26T01:29:06;7.82;;;1.98;;
3549;SDS011;45572;48.804;8.330;2023-03-26T01:31:45;4.18;;;1.52;;
3549;SDS011;45572;48.804;8.330;2023-03-26T01:34:23;4.57;;;1.80;;
3549;SDS011;45572;48.804;8.330;2023-03-26T01:37:03;6.32;;;2.00;;
3549;SDS011;45572;48.804;8.330;2023-03-26T01:39:43;6.75;;;1.70;;
3549;SDS011;45572;48.804;8.330;2023-03-26T01:42:20;5.85;;;2.55;;
3549;SDS011;45572;48.804;8.330;2023-03-26T01:44:54;8.13;;;2.30;;
3549;SDS011;45572;48.804;8.330;2023-03-26T01:47:27;9.73;;;1.95;;
3549;SDS011;45572;48.804;8.330;2023-03-26T01:49:56;6.70;;;2.42;;
3549;SDS011;45572;48.804;8.330;2023-03-26T01:52:24;14.25;;;2.45;;
3549;SDS011;45572;48.804;8.330;2023-03-26T01:54:54;10.80;;;2.50;;
3549;SDS011;45572;48.804;8.330;2023-03-26T01:57:25;18.23;;;2.80;;
3549;SDS011;45572;48.804;8.330;2023-03-26T02:00:02;3.25;;;2.30;;
3549;SDS011;45572;48.804;8.330;2023-03-26T02:02:57;3.35;;;1.50;;
3549;SDS011;45572;48.804;8.330;2023-03-26T02:05:36;7.47;;;2.33;;
3549;SDS011;45572;48.804;8.330;2023-03-26T02:08:13;7.38;;;2.45;;
3549;SDS011;45572;48.804;8.330;2023-03-26T02:10:47;4.53;;;1.83;;
3549;SDS011;45572;48.804;8.330;2023-03-26T02:13:18;7.82;;;1.73;;
3549;SDS011;45572;48.804;8.330;2023-03-26T02:15:54;3.17;;;1.90;;
3549;SDS011;45572;48.804;8.330;2023-03-26T02:18:25;5.35;;;1.98;;
3549;SDS011;45572;48.804;8.330;2023-03-26T02:21:03;6.32;;;1.83;;
3549;SDS011;45572;48.804;8.330;2023-03-26T02:23:39;7.57;;;1.73;;
3549;SDS011;45572;48.804;8.330;2023-03-26T02:26:12;7.28;;;1.77;;
3549;SDS011;45572;48.804;8.330;2023-03-26T02:29:02;6.10;;;1.85;;
3549;SDS011;45572;48.804;8.330;2023-03-26T02:31:30;5.10;;;1.83;;
3549;SDS011;45572;48.804;8.330;2023-03-26T02:34:00;3.75;;;1.73;;
3549;SDS011;45572;48.804;8.330;2023-03-26T02:36:31;8.88;;;3.00;;
3549;SDS011;45572;48.804;8.330;2023-03-26T02:39:02;8.35;;;1.55;;
3549;SDS011;45572;48.804;8.330;2023-03-26T02:41:34;8.95;;;2.45;;
3549;SDS011;45572;48.804;8.330;2023-03-26T02:44:06;4.53;;;1.70;;
3549;SDS011;45572;48.804;8.330;2023-03-26T02:46:53;4.97;;;1.60;;
3549;SDS011;45572;48.804;8.330;2023-03-26T02:49:43;8.52;;;2.50;;
3549;SDS011;45572;48.804;8.330;2023-03-26T02:52:18;3.60;;;1.80;;
3549;SDS011;45572;48.804;8.330;2023-03-26T02:54:47;4.35;;;1.67;;
3549;SDS011;45572;48.804;8.330;2023-03-26T02:57:17;11.88;;;1.80;;
3549;SDS011;45572;48.804;8.330;2023-03-26T02:59:58;11.35;;;2.03;;
3549;SDS011;45572;48.804;8.330;2023-03-26T03:02:37;4.07;;;1.55;;
3549;SDS011;45572;48.804;8.330;2023-03-26T03:05:26;4.40;;;1.85;;
3549;SDS011;45572;48.804;8.330;2023-03-26T03:08:14;6.45;;;2.00;;
3549;SDS011;45572;48.804;8.330;2023-03-26T03:10:58;10.68;;;2.50;;
3549;SDS011;45572;48.804;8.330;2023-03-26T03:13:37;6.82;;;1.80;;
3549;SDS011;45572;48.804;8.330;2023-03-26T03:16:05;8.27;;;1.98;;
3549;SDS011;45572;48.804;8.330;2023-03-26T03:18:34;7.40;;;1.60;;
3549;SDS011;45572;48.804;8.330;2023-03-26T03:21:04;5.75;;;1.67;;
3549;SDS011;45572;48.804;8.330;2023-03-26T03:23:32;6.22;;;1.98;;
3549;SDS011;45572;48.804;8.330;2023-03-26T03:26:09;7.07;;;1.98;;
3549;SDS011;45572;48.804;8.330;2023-03-26T03:28:40;11.55;;;2.65;;
3549;SDS011;45572;48.804;8.330;2023-03-26T03:31:12;7.47;;;1.65;;
3549;SDS011;45572;48.804;8.330;2023-03-26T03:33:40;6.85;;;2.30;;
3549;SDS011;45572;48.804;8.330;2023-03-26T03:36:11;5.70;;;1.92;;
3549;SDS011;45572;48.804;8.330;2023-03-26T03:38:52;8.55;;;1.73;;
3549;SDS011;45572;48.804;8.330;2023-03-26T03:41:21;5.47;;;1.45;;
3549;SDS011;45572;48.804;8.330;2023-03-26T03:43:49;15.50;;;1.70;;
3549;SDS011;45572;48.804;8.330;2023-03-26T03:46:24;5.30;;;2.15;;
3549;SDS011;45572;48.804;8.330;2023-03-26T03:48:52;5.45;;;1.50;;
3549;SDS011;45572;48.804;8.330;2023-03-26T03:51:27;11.98;;;2.55;;
3549;SDS011;45572;48.804;8.330;2023-03-26T03:53:56;11.65;;;1.95;;
3549;SDS011;45572;48.804;8.330;2023-03-26T03:56:44;3.63;;;1.85;;
3549;SDS011;45572;48.804;8.330;2023-03-26T03:59:32;5.88;;;2.05;;
3549;SDS011;45572;48.804;8.330;2023-03-26T04:02:03;16.75;;;3.30;;
3549;SDS011;45572;48.804;8.330;2023-03-26T04:04:38;6.53;;;1.63;;
3549;SDS011;45572;48.804;8.330;2023-03-26T04:07:11;6.53;;;2.75;;
3549;SDS011;45572;48.804;8.330;2023-03-26T04:09:59;12.15;;;1.38;;
3549;SDS011;45572;48.804;8.330;2023-03-26T04:12:49;7.18;;;1.83;;
3549;SDS011;45572;48.804;8.330;2023-03-26T04:15:19;6.25;;;1.35;;
3549;SDS011;45572;48.804;8.330;2023-03-26T04:17:47;9.60;;;1.90;;
3549;SDS011;45572;48.804;8.330;2023-03-26T04:20:18;7.93;;;1.90;;
3549;SDS011;45572;48.804;8.330;2023-03-26T04:22:50;3.45;;;1.30;;
3549;SDS011;45572;48.804;8.330;2023-03-26T04:25:20;9.93;;;1.60;;
3549;SDS011;45572;48.804;8.330;2023-03-26T04:27:53;3.95;;;1.63;;
3549;SDS011;45572;48.804;8.330;2023-03-26T04:30:40;8.60;;;1.85;;
3549;SDS011;45572;48.804;8.330;2023-03-26T04:33:24;8.77;;;1.75;;
3549;SDS011;45572;48.804;8.330;2023-03-26T04:35:53;19.35;;;3.38;;
3549;SDS011;45572;48.804;8.330;2023-03-26T04:38:29;3.33;;;1.75;;
3549;SDS011;45572;48.804;8.330;2023-03-26T04:41:01;4.82;;;1.45;;
3549;SDS011;45572;48.804;8.330;2023-03-26T04:43:51;7.78;;;2.05;;
3549;SDS011;45572;48.804;8.330;2023-03-26T04:46:32;2.33;;;1.42;;
3549;SDS011;45572;48.804;8.330;2023-03-26T04:49:08;6.22;;;2.00;;
3549;SDS011;45572;48.804;8.330;2023-03-26T04:51:37;7.00;;;1.75;;
3549;SDS011;45572;48.804;8.330;2023-03-26T04:54:22;5.05;;;1.58;;
3549;SDS011;45572;48.804;8.330;2023-03-26T04:56:56;2.85;;;1.15;;
3549;SDS011;45572;48.804;8.330;2023-03-26T04:59:35;4.18;;;1.20;;
3549;SDS011;45572;48.804;8.330;2023-03-26T05:02:06;6.18;;;1.63;;
3549;SDS011;45572;48.804;8.330;2023-03-26T05:04:44;9.77;;;1.63;;
3549;SDS011;45572;48.804;8.330;2023-03-26T05:07:14;7.53;;;1.65;;
3549;SDS011;45572;48.804;8.330;2023-03-26T05:09:49;6.63;;;1.90;;
3549;SDS011;45572;48.804;8.330;2023-03-26T05:12:22;5.95;;;1.40;;
3549;SDS011;45572;48.804;8.330;2023-03-26T05:14:55;11.35;;;1.58;;
3549;SDS011;45572;48.804;8.330;2023-03-26T05:17:43;9.18;;;1.70;;
3549;SDS011;45572;48.804;8.330;2023-03-26T05:20:21;7.50;;;1.33;;
3549;SDS011;45572;48.804;8.330;2023-03-26T05:22:51;3.15;;;1.65;;
3549;SDS011;45572;48.804;8.330;2023-03-26T05:25:26;7.82;;;2.28;;
3549;SDS011;45572;48.804;8.330;2023-03-26T05:27:55;6.75;;;1.88;;
3549;SDS011;45572;48.804;8.330;2023-03-26T05:30:29;7.00;;;2.00;;
3549;SDS011;45572;48.804;8.330;2023-03-26T05:32:59;5.07;;;2.08;;
3549;SDS011;45572;48.804;8.330;2023-03-26T05:35:38;4.75;;;1.83;;
3549;SDS011;45572;48.804;8.330;2023-03-26T05:38:07;4.60;;;2.58;;
3549;SDS011;45572;48.804;8.330;2023-03-26T05:40:38;9.30;;;1.95;;
3549;SDS011;45572;48.804;8.330;2023-03-26T05:43:07;6.82;;;1.48;;
3549;SDS011;45572;48.804;8.330;2023-03-26T05:45:38;5.20;;;1.30;;
3549;SDS011;45572;48.804;8.330;2023-03-26T05:48:15;10.65;;;2.30;;
3549;SDS011;45572;48.804;8.330;2023-03-26T05:50:43;2.25;;;1.40;;
3549;SDS011;45572;48.804;8.330;2023-03-26T05:53:13;12.07;;;2.15;;
3549;SDS011;45572;48.804;8.330;2023-03-26T05:56:03;2.40;;;1.80;;
3549;SDS011;45572;48.804;8.330;2023-03-26T05:58:54;5.93;;;1.60;;
3549;SDS011;45572;48.804;8.330;2023-03-26T06:01:42;10.52;;;1.50;;
3549;SDS011;45572;48.804;8.330;2023-03-26T06:04:31;2.05;;;1.30;;
3549;SDS011;45572;48.804;8.330;2023-03-26T06:07:21;8.63;;;2.10;;
3549;SDS011;45572;48.804;8.330;2023-03-26T06:10:06;3.83;;;1.45;;
3549;SDS011;45572;48.804;8.330;2023-03-26T06:12:44;4.00;;;1.70;;
3549;SDS011;45572;48.804;8.330;2023-03-26T06:15:13;2.55;;;1.80;;
3549;SDS011;45572;48.804;8.330;2023-03-26T06:17:45;7.50;;;1.65;;
3549;SDS011;45572;48.804;8.330;2023-03-26T06:20:33;17.33;;;1.83;;
3549;SDS011;45572;48.804;8.330;2023-03-26T06:23:06;4.22;;;1.73;;
3549;SDS011;45572;48.804;8.330;2023-03-26T06:25:54;13.77;;;1.85;;
3549;SDS011;45572;48.804;8.330;2023-03-26T06:28:43;11.93;;;2.08;;
3549;SDS011;45572;48.804;8.330;2023-03-26T06:31:24;2.22;;;1.40;;
3549;SDS011;45572;48.804;8.330;2023-03-26T06:34:09;5.90;;;2.15;;
3549;SDS011;45572;48.804;8.330;2023-03-26T06:36:40;7.90;;;1.95;;
3549;SDS011;45572;48.804;8.330;2023-03-26T06:39:08;7.28;;;2.00;;
3549;SDS011;45572;48.804;8.330;2023-03-26T06:41:44;3.92;;;2.00;;
3549;SDS011;45572;48.804;8.330;2023-03-26T06:44:25;4.53;;;2.28;;
3549;SDS011;45572;48.804;8.330;2023-03-26T06:47:13;2.72;;;1.45;;
3549;SDS011;45572;48.804;8.330;2023-03-26T06:50:02;9.55;;;2.40;;
3549;SDS011;45572;48.804;8.330;2023-03-26T06:52:39;2.88;;;1.92;;
3549;SDS011;45572;48.804;8.330;2023-03-26T06:55:20;1.77;;;1.00;;
3549;SDS011;45572;48.804;8.330;2023-03-26T06:58:09;6.15;;;2.10;;
3549;SDS011;45572;48.804;8.330;2023-03-26T07:00:59;7.18;;;1.85;;
3549;SDS011;45572;48.804;8.330;2023-03-26T07:03:49;5.82;;;1.48;;
3549;SDS011;45572;48.804;8.330;2023-03-26T07:06:37;2.13;;;1.15;;
3549;SDS011;45572;48.804;8.330;2023-03-26T07:09:25;5.18;;;1.85;;
3549;SDS011;45572;48.804;8.330;2023-03-26T07:12:15;8.23;;;1.90;;
3549;SDS011;45572;48.804;8.330;2023-03-26T07:15:03;3.80;;;1.60;;
3549;SDS011;45572;48.804;8.330;2023-03-26T07:17:52;6.57;;;2.15;;
3549;SDS011;45572;48.804;8.330;2023-03-26T07:20:25;8.23;;;2.15;;
3549;SDS011;45572;48.804;8.330;2023-03-26T07:22:54;5.72;;;1.70;;
3549;SDS011;45572;48.804;8.330;2023-03-26T07:25:42;7.55;;;1.80;;
3549;SDS011;45572;48.804;8.330;2023-03-26T07:28:16;7.22;;;1.70;;
3549;SDS011;45572;48.804;8.330;2023-03-26T07:31:14;3.83;;;2.10;;
3549;SDS011;45572;48.804;8.330;2023-03-26T07:34:16;5.75;;;2.00;;
3549;SDS011;45572;48.804;8.330;2023-03-26T07:37:15;4.38;;;1.75;;
3549;SDS011;45572;48.804;8.330;2023-03-26T07:40:13;4.18;;;1.65;;
3549;SDS011;45572;48.804;8.330;2023-03-26T07:43:12;11.23;;;4.13;;
3549;SDS011;45572;48.804;8.330;2023-03-26T07:46:07;2.45;;;1.52;;
3549;SDS011;45572;48.804;8.330;2023-03-26T07:48:50;4.95;;;1.67;;
3549;SDS011;45572;48.804;8.330;2023-03-26T07:51:41;4.05;;;1.90;;
3549;SDS011;45572;48.804;8.330;2023-03-26T07:54:24;3.70;;;1.92;;
3549;SDS011;45572;48.804;8.330;2023-03-26T07:57:07;4.82;;;2.47;;
3549;SDS011;45572;48.804;8.330;2023-03-26T07:59:58;9.57;;;2.75;;
3549;SDS011;45572;48.804;8.330;2023-03-26T08:03:00;4.85;;;1.75;;
3549;SDS011;45572;48.804;8.330;2023-03-26T08:06:02;5.50;;;2.05;;
3549;SDS011;45572;48.804;8.330;2023-03-26T08:08:51;8.00;;;3.40;;
3549;SDS011;45572;48.804;8.330;2023-03-26T08:11:47;6.00;;;2.58;;
3549;SDS011;45572;48.804;8.330;2023-03-26T08:14:23;5.32;;;2.10;;
3549;SDS011;45572;48.804;8.330;2023-03-26T08:17:00;3.65;;;2.28;;
3549;SDS011;45572;48.804;8.330;2023-03-26T08:19:38;5.30;;;2.42;;
3549;SDS011;45572;48.804;8.330;2023-03-26T08:22:15;3.45;;;1.92;;
3549;SDS011;45572;48.804;8.330;2023-03-26T08:24:58;2.42;;;1.38;;
3549;SDS011;45572;48.804;8.330;2023-03-26T08:27:37;2.97;;;1.30;;
3549;SDS011;45572;48.804;8.330;2023-03-26T08:30:08;7.72;;;1.75;;
3549;SDS011;45572;48.804;8.330;2023-03-26T08:32:40;5.03;;;1.25;;
3549;SDS011;45572;48.804;8.330;2023-03-26T08:35:10;4.70;;;1.95;;
3549;SDS011;45572;48.804;8.330;2023-03-26T08:37:38;4.70;;;1.85;;
3549;SDS011;45572;48.804;8.330;2023-03-26T08:40:09;4.82;;;1.30;;
3549;SDS011;45572;48.804;8.330;2023-03-26T08:42:43;4.15;;;1.30;;
3549;SDS011;45572;48.804;8.330;2023-03-26T08:45:32;1.40;;;0.85;;
3549;SDS011;45572;48.804;8.330;2023-03-26T08:48:26;5.25;;;1.33;;
3549;SDS011;45572;48.804;8.330;2023-03-26T08:54:23;3.25;;;1.30;;
3549;SDS011;45572;48.804;8.330;2023-03-26T08:57:12;2.72;;;1.40;;
3549;SDS011;45572;48.804;8.330;2023-03-26T08:59:58;2.80;;;1.17;;
3549;SDS011;45572;48.804;8.330;2023-03-26T09:02:44;4.55;;;1.00;;
3549;SDS011;45572;48.804;8.330;2023-03-26T09:11:29;1.30;;;0.70;;
3549;SDS011;45572;48.804;8.330;2023-03-26T09:14:20;0.90;;;0.55;;
3549;SDS011;45572;48.804;8.330;2023-03-26T09:17:05;3.67;;;1.00;;
3549;SDS011;45572;48.804;8.330;2023-03-26T09:19:57;1.45;;;0.60;;
3549;SDS011;45572;48.804;8.330;2023-03-26T09:22:40;1.57;;;0.80;;
3549;SDS011;45572;48.804;8.330;2023-03-26T09:25:37;3.17;;;0.97;;
3549;SDS011;45572;48.804;8.330;2023-03-26T09:28:30;2.63;;;1.00;;
3549;SDS011;45572;48.804;8.330;2023-03-26T09:31:22;2.60;;;1.40;;
3549;SDS011;45572;48.804;8.330;2023-03-26T09:34:22;1.67;;;0.83;;
3549;SDS011;45572;48.804;8.330;2023-03-26T09:37:01;6.37;;;0.90;;
3549;SDS011;45572;48.804;8.330;2023-03-26T09:39:43;2.30;;;0.60;;
3549;SDS011;45572;48.804;8.330;2023-03-26T09:42:22;5.10;;;1.10;;
3549;SDS011;45572;48.804;8.330;2023-03-26T09:45:03;2.30;;;0.70;;
3549;SDS011;45572;48.804;8.330;2023-03-26T09:47:56;3.20;;;0.73;;
3549;SDS011;45572;48.804;8.330;2023-03-26T09:50:36;3.83;;;0.70;;
3549;SDS011;45572;48.804;8.330;2023-03-26T09:53:19;1.50;;;0.90;;
3549;SDS011;45572;48.804;8.330;2023-03-26T09:56:06;0.80;;;0.70;;
3549;SDS011;45572;48.804;8.330;2023-03-26T09:58:47;3.03;;;0.87;;
3549;SDS011;45572;48.804;8.330;2023-03-26T10:01:26;1.70;;;0.70;;
3549;SDS011;45572;48.804;8.330;2023-03-26T10:04:20;1.73;;;0.70;;
3549;SDS011;45572;48.804;8.330;2023-03-26T10:07:03;2.30;;;0.77;;
3549;SDS011;45572;48.804;8.330;2023-03-26T10:09:40;2.57;;;0.90;;
3549;SDS011;45572;48.804;8.330;2023-03-26T10:12:21;1.00;;;0.60;;
3549;SDS011;45572;48.804;8.330;2023-03-26T10:14:57;2.23;;;0.87;;
3549;SDS011;45572;48.804;8.330;2023-03-26T10:17:38;2.23;;;0.53;;
3549;SDS011;45572;48.804;8.330;2023-03-26T10:20:24;1.70;;;0.80;;
3549;SDS011;45572;48.804;8.330;2023-03-26T10:23:01;2.73;;;0.80;;
3549;SDS011;45572;48.804;8.330;2023-03-26T10:25:42;1.10;;;0.60;;
3549;SDS011;45572;48.804;8.330;2023-03-26T10:28:30;0.80;;;0.53;;
3549;SDS011;45572;48.804;8.330;2023-03-26T10:31:07;1.80;;;0.63;;
3549;SDS011;45572;48.804;8.330;2023-03-26T10:33:49;5.00;;;0.80;;
3549;SDS011;45572;48.804;8.330;2023-03-26T10:36:27;1.27;;;0.70;;
3549;SDS011;45572;48.804;8.330;2023-03-26T10:39:02;1.40;;;0.70;;
3549;SDS011;45572;48.804;8.330;2023-03-26T10:41:59;1.10;;;0.70;;
3549;SDS011;45572;48.804;8.330;2023-03-26T10:44:41;3.03;;;0.80;;
3549;SDS011;45572;48.804;8.330;2023-03-26T10:47:32;4.65;;;1.13;;
3549;SDS011;45572;48.804;8.330;2023-03-26T10:50:14;2.28;;;0.90;;
3549;SDS011;45572;48.804;8.330;2023-03-26T10:52:57;2.67;;;1.23;;
3549;SDS011;45572;48.804;8.330;2023-03-26T10:55:30;2.70;;;0.73;;
3549;SDS011;45572;48.804;8.330;2023-03-26T10:58:03;4.18;;;1.30;;
3549;SDS011;45572;48.804;8.330;2023-03-26T11:00:41;3.45;;;0.90;;
3549;SDS011;45572;48.804;8.330;2023-03-26T11:03:19;2.10;;;1.15;;
3549;SDS011;45572;48.804;8.330;2023-03-26T11:06:06;5.93;;;1.05;;
3549;SDS011;45572;48.804;8.330;2023-03-26T11:08:50;4.43;;;1.40;;
3549;SDS011;45572;48.804;8.330;2023-03-26T11:11:27;3.28;;;1.08;;
3549;SDS011;45572;48.804;8.330;2023-03-26T11:14:03;2.53;;;0.80;;
3549;SDS011;45572;48.804;8.330;2023-03-26T11:16:48;4.35;;;1.13;;
3549;SDS011;45572;48.804;8.330;2023-03-26T11:19:26;2.60;;;1.20;;
3549;SDS011;45572;48.804;8.330;2023-03-26T11:21:59;1.65;;;0.80;;
3549;SDS011;45572;48.804;8.330;2023-03-26T11:24:38;1.42;;;0.85;;
3549;SDS011;45572;48.804;8.330;2023-03-26T11:27:22;2.90;;;0.90;;
3549;SDS011;45572;48.804;8.330;2023-03-26T11:30:01;5.00;;;1.17;;
3549;SDS011;45572;48.804;8.330;2023-03-26T11:32:39;3.70;;;1.10;;
3549;SDS011;45572;48.804;8.330;2023-03-26T11:35:14;6.25;;;2.10;;
3549;SDS011;45572;48.804;8.330;2023-03-26T11:38:09;4.90;;;1.10;;
3549;SDS011;45572;48.804;8.330;2023-03-26T11:40:45;3.67;;;0.90;;
3549;SDS011;45572;48.804;8.330;2023-03-26T11:43:30;2.60;;;0.77;;
3549;SDS011;45572;48.804;8.330;2023-03-26T11:46:03;2.20;;;0.80;;
3549;SDS011;45572;48.804;8.330;2023-03-26T11:48:37;5.47;;;0.88;;
3549;SDS011;45572;48.804;8.330;2023-03-26T11:51:10;3.43;;;0.93;;
3549;SDS011;45572;48.804;8.330;2023-03-26T11:53:42;3.83;;;0.90;;
3549;SDS011;45572;48.804;8.330;2023-03-26T11:56:14;3.67;;;1.27;;
3549;SDS011;45572;48.804;8.330;2023-03-26T11:58:49;3.43;;;0.80;;
3549;SDS011;45572;48.804;8.330;2023-03-26T12:01:23;3.93;;;1.00;;
3549;SDS011;45572;48.804;8.330;2023-03-26T12:03:56;2.53;;;1.50;;
3549;SDS011;45572;48.804;8.330;2023-03-26T12:06:30;2.00;;;0.60;;
3549;SDS011;45572;48.804;8.330;2023-03-26T12:08:58;2.70;;;0.87;;
3549;SDS011;45572;48.804;8.330;2023-03-26T12:11:27;3.33;;;0.70;;
3549;SDS011;45572;48.804;8.330;2023-03-26T12:14:03;2.10;;;0.73;;
3549;SDS011;45572;48.804;8.330;2023-03-26T12:16:32;2.70;;;0.70;;
3549;SDS011;45572;48.804;8.330;2023-03-26T12:19:02;4.80;;;1.00;;
3549;SDS011;45572;48.804;8.330;2023-03-26T12:21:46;1.80;;;1.10;;
3549;SDS011;45572;48.804;8.330;2023-03-26T12:24:25;2.38;;;0.80;;
3549;SDS011;45572;48.804;8.330;2023-03-26T12:26:58;3.50;;;0.88;;
3549;SDS011;45572;48.804;8.330;2023-03-26T12:29:28;2.67;;;0.95;;
3549;SDS011;45572;48.804;8.330;2023-03-26T12:32:04;1.40;;;0.93;;
3549;SDS011;45572;48.804;8.330;2023-03-26T12:34:38;4.50;;;1.60;;
3549;SDS011;45572;48.804;8.330;2023-03-26T12:37:14;3.05;;;0.70;;
3549;SDS011;45572;48.804;8.330;2023-03-26T12:40:05;8.52;;;1.65;;
3549;SDS011;45572;48.804;8.330;2023-03-26T12:42:50;5.22;;;1.00;;
3549;SDS011;45572;48.804;8.330;2023-03-26T12:45:41;16.17;;;1.38;;
3549;SDS011;45572;48.804;8.330;2023-03-26T12:48:12;3.35;;;0.85;;
3549;SDS011;45572;48.804;8.330;2023-03-26T12:50:46;1.52;;;0.95;;
3549;SDS011;45572;48.804;8.330;2023-03-26T12:53:32;3.17;;;0.80;;
3549;SDS011;45572;48.804;8.330;2023-03-26T12:56:18;3.33;;;1.10;;
3549;SDS011;45572;48.804;8.330;2023-03-26T12:58:53;7.60;;;1.10;;
3549;SDS011;45572;48.804;8.330;2023-03-26T13:01:42;3.40;;;0.70;;
3549;SDS011;45572;48.804;8.330;2023-03-26T13:04:25;2.87;;;1.37;;
3549;SDS011;45572;48.804;8.330;2023-03-26T13:07:03;4.00;;;0.90;;
3549;SDS011;45572;48.804;8.330;2023-03-26T13:09:46;4.60;;;0.93;;
3549;SDS011;45572;48.804;8.330;2023-03-26T13:12:28;3.83;;;1.40;;
3549;SDS011;45572;48.804;8.330;2023-03-26T13:15:10;2.10;;;0.88;;
3549;SDS011;45572;48.804;8.330;2023-03-26T13:17:46;6.05;;;0.60;;
3549;SDS011;45572;48.804;8.330;2023-03-26T13:20:23;3.08;;;0.82;;
3549;SDS011;45572;48.804;8.330;2023-03-26T13:22:58;1.73;;;0.52;;
3549;SDS011;45572;48.804;8.330;2023-03-26T13:25:35;3.08;;;1.25;;
3549;SDS011;45572;48.804;8.330;2023-03-26T13:28:10;2.22;;;0.70;;
3549;SDS011;45572;48.804;8.330;2023-03-26T13:30:50;2.70;;;0.75;;
3549;SDS011;45572;48.804;8.330;2023-03-26T13:33:33;4.15;;;0.80;;
3549;SDS011;45572;48.804;8.330;2023-03-26T13:36:07;3.42;;;1.05;;
3549;SDS011;45572;48.804;8.330;2023-03-26T13:38:53;5.85;;;1.35;;
3549;SDS011;45572;48.804;8.330;2023-03-26T13:41:32;2.05;;;0.75;;
3549;SDS011;45572;48.804;8.330;2023-03-26T13:44:11;5.60;;;1.20;;
3549;SDS011;45572;48.804;8.330;2023-03-26T13:46:50;5.78;;;1.13;;
3549;SDS011;45572;48.804;8.330;2023-03-26T13:49:23;3.00;;;0.70;;
3549;SDS011;45572;48.804;8.330;2023-03-26T13:52:03;2.60;;;0.90;;
3549;SDS011;45572;48.804;8.330;2023-03-26T13:54:35;1.80;;;0.70;;
3549;SDS011;45572;48.804;8.330;2023-03-26T13:57:10;1.30;;;0.70;;
3549;SDS011;45572;48.804;8.330;2023-03-26T13:59:46;3.50;;;0.80;;
3549;SDS011;45572;48.804;8.330;2023-03-26T14:02:19;2.50;;;0.93;;
3549;SDS011;45572;48.804;8.330;2023-03-26T14:04:54;2.47;;;1.10;;
3549;SDS011;45572;48.804;8.330;2023-03-26T14:07:26;2.08;;;0.70;;
3549;SDS011;45572;48.804;8.330;2023-03-26T14:10:00;2.22;;;0.95;;
3549;SDS011;45572;48.804;8.330;2023-03-26T14:12:39;3.45;;;0.90;;
3549;SDS011;45572;48.804;8.330;2023-03-26T14:15:18;2.35;;;0.73;;
3549;SDS011;45572;48.804;8.330;2023-03-26T14:17:50;7.88;;;1.25;;
3549;SDS011;45572;48.804;8.330;2023-03-26T14:20:27;8.05;;;4.50;;
3549;SDS011;45572;48.804;8.330;2023-03-26T14:23:21;5.65;;;3.50;;
3549;SDS011;45572;48.804;8.330;2023-03-26T14:26:05;5.45;;;3.47;;
3549;SDS011;45572;48.804;8.330;2023-03-26T14:28:50;7.60;;;2.92;;
3549;SDS011;45572;48.804;8.330;2023-03-26T14:31:41;2.47;;;1.60;;
3549;SDS011;45572;48.804;8.330;2023-03-26T14:34:21;4.35;;;1.42;;
3549;SDS011;45572;48.804;8.330;2023-03-26T14:37:03;4.18;;;0.90;;
3549;SDS011;45572;48.804;8.330;2023-03-26T14:39:57;3.17;;;1.55;;
3549;SDS011;45572;48.804;8.330;2023-03-26T14:42:41;3.30;;;1.27;;
3549;SDS011;45572;48.804;8.330;2023-03-26T14:48:12;3.83;;;1.35;;
3549;SDS011;45572;48.804;8.330;2023-03-26T14:51:01;6.43;;;2.88;;
3549;SDS011;45572;48.804;8.330;2023-03-26T14:53:40;2.88;;;1.30;;
3549;SDS011;45572;48.804;8.330;2023-03-26T14:59:12;4.28;;;1.75;;
3549;SDS011;45572;48.804;8.330;2023-03-26T15:02:08;4.30;;;0.90;;
3549;SDS011;45572;48.804;8.330;2023-03-26T15:05:15;1.80;;;1.67;;
3549;SDS011;45572;48.804;8.330;2023-03-26T15:08:16;0.90;;;0.70;;
3549;SDS011;45572;48.804;8.330;2023-03-26T15:11:12;2.85;;;0.60;;
3549;SDS011;45572;48.804;8.330;2023-03-26T15:13:54;1.08;;;0.70;;
3549;SDS011;45572;48.804;8.330;2023-03-26T15:16:38;2.00;;;0.60;;
3549;SDS011;45572;48.804;8.330;2023-03-26T15:19:31;1.10;;;0.90;;
3549;SDS011;45572;48.804;8.330;2023-03-26T15:22:24;3.17;;;1.05;;
3549;SDS011;45572;48.804;8.330;2023-03-26T15:28:15;2.85;;;0.60;;
3549;SDS011;45572;48.804;8.330;2023-03-26T15:31:06;1.75;;;0.60;;
3549;SDS011;45572;48.804;8.330;2023-03-26T15:33:44;1.25;;;0.50;;
3549;SDS011;45572;48.804;8.330;2023-03-26T15:36:34;1.55;;;0.90;;
3549;SDS011;45572;48.804;8.330;2023-03-26T15:42:28;1.10;;;0.60;;
3549;SDS011;45572;48.804;8.330;2023-03-26T15:47:55;3.15;;;1.10;;
3549;SDS011;45572;48.804;8.330;2023-03-26T15:50:40;1.13;;;0.70;;
3549;SDS011;45572;48.804;8.330;2023-03-26T15:53:18;0.70;;;0.50;;
3549;SDS011;45572;48.804;8.330;2023-03-26T15:55:57;1.23;;;1.00;;
3549;SDS011;45572;48.804;8.330;2023-03-26T15:58:35;2.65;;;0.63;;
3549;SDS011;45572;48.804;8.330;2023-03-26T16:01:15;0.50;;;0.40;;
3549;SDS011;45572;48.804;8.330;2023-03-26T16:03:53;3.33;;;1.73;;
3549;SDS011;45572;48.804;8.330;2023-03-26T16:06:33;1.67;;;0.60;;
3549;SDS011;45572;48.804;8.330;2023-03-26T16:09:18;1.05;;;0.70;;
3549;SDS011;45572;48.804;8.330;2023-03-26T16:12:23;2.75;;;0.98;;
3549;SDS011;45572;48.804;8.330;2023-03-26T16:20:48;1.27;;;0.50;;
3549;SDS011;45572;48.804;8.330;2023-03-26T16:23:23;1.00;;;0.55;;
3549;SDS011;45572;48.804;8.330;2023-03-26T16:25:57;0.70;;;0.40;;
3549;SDS011;45572;48.804;8.330;2023-03-26T16:28:58;1.33;;;0.80;;
3549;SDS011;45572;48.804;8.330;2023-03-26T16:34:26;0.75;;;0.40;;
3549;SDS011;45572;48.804;8.330;2023-03-26T16:37:04;0.70;;;0.47;;
3549;SDS011;45572;48.804;8.330;2023-03-26T16:39:52;1.00;;;0.60;;
3549;SDS011;45572;48.804;8.330;2023-03-26T16:42:28;0.70;;;0.60;;
3549;SDS011;45572;48.804;8.330;2023-03-26T16:45:05;1.50;;;0.47;;